Rocky, Oklahoma
Current Conditions -  °F | °C
As of 6:53 PM on Tuesday 27 Jan 2015 (Local Time) from KHBR Reporting Station
Clear Clear  
Wind Chill: 57°   Ceiling: Unl
Heat Index: 57°   Visibility: 10mi
Dew Point: 41°   Wind: 13mph
Humidity: 55%   Direction: 180°S
Pressure: 30.08"   Gusts: NA
Location:  35.16°N, 99.06°W
Report Text: KHBR 280053Z AUTO 18011KT 10SM CLR 14/05 A3008 RMK AO2 SLP186 T01390050
Loading
Personal Weather Stations






























Interactive Weather Map New forecast layout! Learn more

10-Day Weather Forecast

Advertisements
Track Severe Weather on mobile